sensor_id;sensor_type;location;lat;lon;timestamp;temperature;humidity
1063;DHT22;520;50.932;6.962;2023-05-07T00:02:08;17.50;99.90
1063;DHT22;520;50.932;6.962;2023-05-07T00:04:34;17.50;99.90
1063;DHT22;520;50.932;6.962;2023-05-07T00:07:04;17.40;99.90
1063;DHT22;520;50.932;6.962;2023-05-07T00:09:32;17.50;99.90
1063;DHT22;520;50.932;6.962;2023-05-07T00:12:01;17.50;99.90
1063;DHT22;520;50.932;6.962;2023-05-07T00:14:28;17.40;99.90
1063;DHT22;520;50.932;6.962;2023-05-07T00:16:58;17.40;99.90
1063;DHT22;520;50.932;6.962;2023-05-07T00:19:25;17.40;99.90
1063;DHT22;520;50.932;6.962;2023-05-07T00:21:52;17.20;99.90
1063;DHT22;520;50.932;6.962;2023-05-07T00:24:20;17.10;99.90
1063;DHT22;520;50.932;6.962;2023-05-07T00:26:47;17.00;99.90
1063;DHT22;520;50.932;6.962;2023-05-07T00:29:14;17.10;99.90
1063;DHT22;520;50.932;6.962;2023-05-07T00:31:40;17.20;99.90
1063;DHT22;520;50.932;6.962;2023-05-07T00:34:07;17.10;99.90
1063;DHT22;520;50.932;6.962;2023-05-07T00:36:34;17.10;99.90
1063;DHT22;520;50.932;6.962;2023-05-07T00:39:02;17.10;99.90
1063;DHT22;520;50.932;6.962;2023-05-07T00:41:30;17.20;99.90
1063;DHT22;520;50.932;6.962;2023-05-07T00:43:59;17.20;99.90
1063;DHT22;520;50.932;6.962;2023-05-07T00:46:27;17.20;99.90
1063;DHT22;520;50.932;6.962;2023-05-07T00:48:54;17.20;99.90
1063;DHT22;520;50.932;6.962;2023-05-07T00:51:22;17.20;99.90
1063;DHT22;520;50.932;6.962;2023-05-07T00:53:50;17.10;99.90
1063;DHT22;520;50.932;6.962;2023-05-07T00:56:17;17.10;99.90
1063;DHT22;520;50.932;6.962;2023-05-07T00:58:44;17.20;99.90
1063;DHT22;520;50.932;6.962;2023-05-07T01:01:11;17.10;99.90
1063;DHT22;520;50.932;6.962;2023-05-07T01:03:38;17.00;99.90
1063;DHT22;520;50.932;6.962;2023-05-07T01:06:06;17.00;99.90
1063;DHT22;520;50.932;6.962;2023-05-07T01:08:34;17.00;99.90
1063;DHT22;520;50.932;6.962;2023-05-07T01:11:02;16.90;99.90
1063;DHT22;520;50.932;6.962;2023-05-07T01:13:29;16.80;99.90
1063;DHT22;520;50.932;6.962;2023-05-07T01:15:57;16.70;99.90
1063;DHT22;520;50.932;6.962;2023-05-07T01:18:24;16.80;99.90
1063;DHT22;520;50.932;6.962;2023-05-07T01:20:52;16.90;99.90
1063;DHT22;520;50.932;6.962;2023-05-07T01:23:22;16.80;99.90
1063;DHT22;520;50.932;6.962;2023-05-07T01:25:52;16.90;99.90
1063;DHT22;520;50.932;6.962;2023-05-07T01:28:19;16.90;99.90
1063;DHT22;520;50.932;6.962;2023-05-07T01:30:54;16.90;99.90
1063;DHT22;520;50.932;6.962;2023-05-07T01:33:23;16.80;99.90
1063;DHT22;520;50.932;6.962;2023-05-07T01:35:53;16.80;99.90
1063;DHT22;520;50.932;6.962;2023-05-07T01:38:21;17.10;99.90
1063;DHT22;520;50.932;6.962;2023-05-07T01:40:49;17.30;99.90
1063;DHT22;520;50.932;6.962;2023-05-07T01:43:16;17.20;99.90
1063;DHT22;520;50.932;6.962;2023-05-07T01:45:43;17.10;99.90
1063;DHT22;520;50.932;6.962;2023-05-07T01:48:11;17.20;99.90
1063;DHT22;520;50.932;6.962;2023-05-07T01:50:39;17.20;99.90
1063;DHT22;520;50.932;6.962;2023-05-07T01:53:06;17.20;99.90
1063;DHT22;520;50.932;6.962;2023-05-07T01:55:33;17.10;99.90
1063;DHT22;520;50.932;6.962;2023-05-07T01:58:00;17.00;99.90
1063;DHT22;520;50.932;6.962;2023-05-07T02:00:27;17.00;99.90
1063;DHT22;520;50.932;6.962;2023-05-07T02:02:54;16.90;99.90
1063;DHT22;520;50.932;6.962;2023-05-07T02:05:22;16.90;99.90
1063;DHT22;520;50.932;6.962;2023-05-07T02:07:49;17.00;99.90
1063;DHT22;520;50.932;6.962;2023-05-07T02:10:16;16.90;99.90
1063;DHT22;520;50.932;6.962;2023-05-07T02:12:43;16.80;99.90
1063;DHT22;520;50.932;6.962;2023-05-07T02:15:10;17.00;99.90
1063;DHT22;520;50.932;6.962;2023-05-07T02:18:05;16.90;99.90
1063;DHT22;520;50.932;6.962;2023-05-07T02:20:32;16.80;99.90
1063;DHT22;520;50.932;6.962;2023-05-07T02:22:59;17.00;99.90
1063;DHT22;520;50.932;6.962;2023-05-07T02:25:27;16.80;99.90
1063;DHT22;520;50.932;6.962;2023-05-07T02:27:53;16.90;99.90
1063;DHT22;520;50.932;6.962;2023-05-07T02:30:20;16.90;99.90
1063;DHT22;520;50.932;6.962;2023-05-07T02:32:47;16.80;99.90
1063;DHT22;520;50.932;6.962;2023-05-07T02:35:14;16.70;99.90
1063;DHT22;520;50.932;6.962;2023-05-07T02:37:41;16.60;99.90
1063;DHT22;520;50.932;6.962;2023-05-07T02:40:08;16.70;99.90
1063;DHT22;520;50.932;6.962;2023-05-07T02:42:35;16.50;99.90
1063;DHT22;520;50.932;6.962;2023-05-07T02:45:02;16.60;99.90
1063;DHT22;520;50.932;6.962;2023-05-07T02:47:29;16.60;99.90
1063;DHT22;520;50.932;6.962;2023-05-07T02:49:55;16.60;99.90
1063;DHT22;520;50.932;6.962;2023-05-07T02:52:22;16.70;99.90
1063;DHT22;520;50.932;6.962;2023-05-07T02:54:49;16.70;99.90
1063;DHT22;520;50.932;6.962;2023-05-07T02:57:15;16.70;99.90
1063;DHT22;520;50.932;6.962;2023-05-07T02:59:43;16.60;99.90
1063;DHT22;520;50.932;6.962;2023-05-07T03:02:09;16.60;99.90
1063;DHT22;520;50.932;6.962;2023-05-07T03:04:36;16.50;99.90
1063;DHT22;520;50.932;6.962;2023-05-07T03:07:03;16.60;99.90
1063;DHT22;520;50.932;6.962;2023-05-07T03:09:30;16.60;99.90
1063;DHT22;520;50.932;6.962;2023-05-07T03:11:57;16.50;99.90
1063;DHT22;520;50.932;6.962;2023-05-07T03:14:23;16.60;99.90
1063;DHT22;520;50.932;6.962;2023-05-07T03:16:50;16.80;99.90
1063;DHT22;520;50.932;6.962;2023-05-07T03:19:17;16.70;99.90
1063;DHT22;520;50.932;6.962;2023-05-07T03:21:43;16.70;99.90
1063;DHT22;520;50.932;6.962;2023-05-07T03:24:10;16.50;99.90
1063;DHT22;520;50.932;6.962;2023-05-07T03:26:37;16.50;99.90
1063;DHT22;520;50.932;6.962;2023-05-07T03:29:03;16.40;99.90
1063;DHT22;520;50.932;6.962;2023-05-07T03:31:30;16.60;99.90
1063;DHT22;520;50.932;6.962;2023-05-07T03:33:57;16.40;99.90
1063;DHT22;520;50.932;6.962;2023-05-07T03:36:24;16.60;99.90
1063;DHT22;520;50.932;6.962;2023-05-07T03:38:53;16.80;99.90
1063;DHT22;520;50.932;6.962;2023-05-07T03:41:19;16.80;99.90
1063;DHT22;520;50.932;6.962;2023-05-07T03:43:46;16.60;99.90
1063;DHT22;520;50.932;6.962;2023-05-07T03:46:13;16.70;99.90
1063;DHT22;520;50.932;6.962;2023-05-07T03:48:40;16.90;99.90
1063;DHT22;520;50.932;6.962;2023-05-07T03:51:07;16.60;99.90
1063;DHT22;520;50.932;6.962;2023-05-07T03:53:33;16.60;99.90
1063;DHT22;520;50.932;6.962;2023-05-07T03:56:00;16.60;99.90
1063;DHT22;520;50.932;6.962;2023-05-07T03:58:27;16.50;99.90
1063;DHT22;520;50.932;6.962;2023-05-07T04:00:53;16.50;99.90
1063;DHT22;520;50.932;6.962;2023-05-07T04:03:21;16.50;99.90
1063;DHT22;520;50.932;6.962;2023-05-07T04:05:47;16.60;99.90
1063;DHT22;520;50.932;6.962;2023-05-07T04:08:14;16.60;99.90
1063;DHT22;520;50.932;6.962;2023-05-07T04:10:40;16.60;99.90
1063;DHT22;520;50.932;6.962;2023-05-07T04:13:07;16.90;99.90
1063;DHT22;520;50.932;6.962;2023-05-07T04:15:35;16.90;99.90
1063;DHT22;520;50.932;6.962;2023-05-07T04:18:02;16.70;99.90
1063;DHT22;520;50.932;6.962;2023-05-07T04:20:29;16.60;99.90
1063;DHT22;520;50.932;6.962;2023-05-07T04:22:56;16.60;99.90
1063;DHT22;520;50.932;6.962;2023-05-07T04:25:22;16.60;99.90
1063;DHT22;520;50.932;6.962;2023-05-07T04:27:54;16.80;99.90
1063;DHT22;520;50.932;6.962;2023-05-07T04:30:23;16.70;99.90
1063;DHT22;520;50.932;6.962;2023-05-07T04:32:50;16.70;99.90
1063;DHT22;520;50.932;6.962;2023-05-07T04:35:17;16.50;99.90
1063;DHT22;520;50.932;6.962;2023-05-07T04:37:44;16.50;99.90
1063;DHT22;520;50.932;6.962;2023-05-07T04:40:11;16.60;99.90
1063;DHT22;520;50.932;6.962;2023-05-07T04:42:38;16.60;99.90
1063;DHT22;520;50.932;6.962;2023-05-07T04:45:05;16.70;99.90
1063;DHT22;520;50.932;6.962;2023-05-07T04:47:33;16.70;99.90
1063;DHT22;520;50.932;6.962;2023-05-07T04:50:00;16.60;99.90
1063;DHT22;520;50.932;6.962;2023-05-07T04:52:27;16.70;99.90
1063;DHT22;520;50.932;6.962;2023-05-07T04:54:54;16.70;99.90
1063;DHT22;520;50.932;6.962;2023-05-07T04:57:21;16.60;99.90
1063;DHT22;520;50.932;6.962;2023-05-07T04:59:47;16.50;99.90
1063;DHT22;520;50.932;6.962;2023-05-07T05:02:15;16.40;99.90
1063;DHT22;520;50.932;6.962;2023-05-07T05:05:05;16.30;99.90
1063;DHT22;520;50.932;6.962;2023-05-07T05:07:37;16.60;99.90
1063;DHT22;520;50.932;6.962;2023-05-07T05:10:14;16.60;99.90
1063;DHT22;520;50.932;6.962;2023-05-07T05:12:44;16.80;99.90
1063;DHT22;520;50.932;6.962;2023-05-07T05:15:38;16.80;99.90
1063;DHT22;520;50.932;6.962;2023-05-07T05:18:10;16.70;99.90
1063;DHT22;520;50.932;6.962;2023-05-07T05:20:58;16.70;99.90
1063;DHT22;520;50.932;6.962;2023-05-07T05:23:34;16.80;99.90
1063;DHT22;520;50.932;6.962;2023-05-07T05:26:11;16.70;99.90
1063;DHT22;520;50.932;6.962;2023-05-07T05:28:59;16.90;99.90
1063;DHT22;520;50.932;6.962;2023-05-07T05:31:26;17.00;99.90
1063;DHT22;520;50.932;6.962;2023-05-07T05:34:30;16.90;99.90
1063;DHT22;520;50.932;6.962;2023-05-07T05:37:09;17.10;99.90
1063;DHT22;520;50.932;6.962;2023-05-07T05:40:01;17.20;99.90
1063;DHT22;520;50.932;6.962;2023-05-07T05:42:37;17.30;99.90
1063;DHT22;520;50.932;6.962;2023-05-07T05:45:25;17.20;99.90
1063;DHT22;520;50.932;6.962;2023-05-07T05:48:18;17.20;99.90
1063;DHT22;520;50.932;6.962;2023-05-07T05:50:47;17.00;99.90
1063;DHT22;520;50.932;6.962;2023-05-07T05:53:30;17.10;99.90
1063;DHT22;520;50.932;6.962;2023-05-07T05:56:06;17.20;99.90
1063;DHT22;520;50.932;6.962;2023-05-07T06:01:21;17.30;99.90
1063;DHT22;520;50.932;6.962;2023-05-07T06:03:53;17.30;99.90
1063;DHT22;520;50.932;6.962;2023-05-07T06:06:24;17.40;99.90
1063;DHT22;520;50.932;6.962;2023-05-07T06:09:05;17.50;99.90
1063;DHT22;520;50.932;6.962;2023-05-07T06:11:48;17.50;99.90
1063;DHT22;520;50.932;6.962;2023-05-07T06:14:33;17.40;99.90
1063;DHT22;520;50.932;6.962;2023-05-07T06:17:20;17.20;99.90
1063;DHT22;520;50.932;6.962;2023-05-07T06:20:00;17.30;99.90
1063;DHT22;520;50.932;6.962;2023-05-07T06:22:32;17.30;99.90
1063;DHT22;520;50.932;6.962;2023-05-07T06:25:14;17.40;99.90
1063;DHT22;520;50.932;6.962;2023-05-07T06:27:43;17.70;99.90
1063;DHT22;520;50.932;6.962;2023-05-07T06:30:20;17.90;99.90
1063;DHT22;520;50.932;6.962;2023-05-07T06:32:58;17.90;99.90
1063;DHT22;520;50.932;6.962;2023-05-07T06:35:47;18.00;99.90
1063;DHT22;520;50.932;6.962;2023-05-07T06:38:15;17.90;99.90
1063;DHT22;520;50.932;6.962;2023-05-07T06:40:49;18.00;99.90
1063;DHT22;520;50.932;6.962;2023-05-07T06:43:36;18.10;99.90
1063;DHT22;520;50.932;6.962;2023-05-07T06:46:14;18.20;99.90
1063;DHT22;520;50.932;6.962;2023-05-07T06:48:57;18.10;99.90
1063;DHT22;520;50.932;6.962;2023-05-07T06:52:00;18.30;99.90
1063;DHT22;520;50.932;6.962;2023-05-07T06:54:47;18.40;99.90
1063;DHT22;520;50.932;6.962;2023-05-07T06:57:24;18.50;99.70
1063;DHT22;520;50.932;6.962;2023-05-07T07:00:00;18.30;99.80
1063;DHT22;520;50.932;6.962;2023-05-07T07:02:29;18.30;99.90
1063;DHT22;520;50.932;6.962;2023-05-07T07:05:00;18.50;99.90
1063;DHT22;520;50.932;6.962;2023-05-07T07:07:32;18.50;99.90
1063;DHT22;520;50.932;6.962;2023-05-07T07:10:17;18.60;99.70
1063;DHT22;520;50.932;6.962;2023-05-07T07:13:00;18.80;99.50
1063;DHT22;520;50.932;6.962;2023-05-07T07:15:45;18.70;99.30
1063;DHT22;520;50.932;6.962;2023-05-07T07:18:41;18.90;99.00
1063;DHT22;520;50.932;6.962;2023-05-07T07:21:11;19.30;98.00
1063;DHT22;520;50.932;6.962;2023-05-07T07:24:00;19.60;97.10
1063;DHT22;520;50.932;6.962;2023-05-07T07:26:44;19.60;97.20
1063;DHT22;520;50.932;6.962;2023-05-07T07:29:29;19.70;97.20
1063;DHT22;520;50.932;6.962;2023-05-07T07:32:08;19.70;97.00
1063;DHT22;520;50.932;6.962;2023-05-07T07:34:45;19.80;96.90
1063;DHT22;520;50.932;6.962;2023-05-07T07:37:19;20.00;96.40
1063;DHT22;520;50.932;6.962;2023-05-07T07:40:22;19.80;96.60
1063;DHT22;520;50.932;6.962;2023-05-07T07:42:57;19.80;96.60
1063;DHT22;520;50.932;6.962;2023-05-07T07:45:41;19.90;96.50
1063;DHT22;520;50.932;6.962;2023-05-07T07:48:50;20.40;95.50
1063;DHT22;520;50.932;6.962;2023-05-07T07:51:28;20.80;95.40
1063;DHT22;520;50.932;6.962;2023-05-07T07:54:21;21.90;92.60
1063;DHT22;520;50.932;6.962;2023-05-07T07:57:14;21.40;92.60
1063;DHT22;520;50.932;6.962;2023-05-07T07:59:43;21.20;92.70
1063;DHT22;520;50.932;6.962;2023-05-07T08:02:19;20.90;93.30
1063;DHT22;520;50.932;6.962;2023-05-07T08:05:26;20.60;93.70
1063;DHT22;520;50.932;6.962;2023-05-07T08:08:20;20.50;94.30
1063;DHT22;520;50.932;6.962;2023-05-07T08:11:09;20.60;94.50
1063;DHT22;520;50.932;6.962;2023-05-07T08:17:08;20.50;94.30
1063;DHT22;520;50.932;6.962;2023-05-07T08:20:08;20.40;94.70
1063;DHT22;520;50.932;6.962;2023-05-07T08:22:46;20.30;94.60
1063;DHT22;520;50.932;6.962;2023-05-07T08:25:19;20.20;94.80
1063;DHT22;520;50.932;6.962;2023-05-07T08:28:00;20.30;94.80
1063;DHT22;520;50.932;6.962;2023-05-07T08:30:34;20.30;94.90
1063;DHT22;520;50.932;6.962;2023-05-07T08:33:09;20.00;95.20
1063;DHT22;520;50.932;6.962;2023-05-07T08:36:01;20.20;95.10
1063;DHT22;520;50.932;6.962;2023-05-07T08:38:42;20.20;95.20
1063;DHT22;520;50.932;6.962;2023-05-07T08:41:40;20.10;95.70
1063;DHT22;520;50.932;6.962;2023-05-07T08:44:38;20.30;95.50
1063;DHT22;520;50.932;6.962;2023-05-07T08:47:51;20.50;95.40
1063;DHT22;520;50.932;6.962;2023-05-07T08:50:49;20.60;94.70
1063;DHT22;520;50.932;6.962;2023-05-07T08:54:05;21.20;94.00
1063;DHT22;520;50.932;6.962;2023-05-07T08:57:05;22.20;92.50
1063;DHT22;520;50.932;6.962;2023-05-07T09:00:02;22.60;90.80
1063;DHT22;520;50.932;6.962;2023-05-07T09:03:00;22.70;91.10
1063;DHT22;520;50.932;6.962;2023-05-07T09:05:58;23.60;90.00
1063;DHT22;520;50.932;6.962;2023-05-07T09:11:54;23.80;86.90
1063;DHT22;520;50.932;6.962;2023-05-07T09:15:12;24.00;86.00
1063;DHT22;520;50.932;6.962;2023-05-07T09:18:04;23.70;85.90
1063;DHT22;520;50.932;6.962;2023-05-07T09:20:53;23.20;86.70
1063;DHT22;520;50.932;6.962;2023-05-07T09:24:04;23.30;86.90
1063;DHT22;520;50.932;6.962;2023-05-07T09:27:01;24.70;83.60
1063;DHT22;520;50.932;6.962;2023-05-07T09:29:53;25.60;79.30
1063;DHT22;520;50.932;6.962;2023-05-07T09:33:01;27.10;73.90
1063;DHT22;520;50.932;6.962;2023-05-07T09:36:01;27.30;69.20
1063;DHT22;520;50.932;6.962;2023-05-07T09:38:48;27.40;66.20
1063;DHT22;520;50.932;6.962;2023-05-07T09:42:00;26.60;68.20
1063;DHT22;520;50.932;6.962;2023-05-07T09:44:50;26.80;67.90
1063;DHT22;520;50.932;6.962;2023-05-07T09:47:47;27.40;66.30
1063;DHT22;520;50.932;6.962;2023-05-07T09:50:52;29.10;60.70
1063;DHT22;520;50.932;6.962;2023-05-07T09:53:53;29.40;58.80
1063;DHT22;520;50.932;6.962;2023-05-07T09:57:04;30.40;55.90
1063;DHT22;520;50.932;6.962;2023-05-07T10:00:09;30.20;55.20
1063;DHT22;520;50.932;6.962;2023-05-07T10:03:07;30.90;53.00
1063;DHT22;520;50.932;6.962;2023-05-07T10:05:51;30.30;53.20
1063;DHT22;520;50.932;6.962;2023-05-07T10:08:39;29.20;54.20
1063;DHT22;520;50.932;6.962;2023-05-07T10:11:48;29.30;54.60
1063;DHT22;520;50.932;6.962;2023-05-07T10:14:38;28.60;56.00
1063;DHT22;520;50.932;6.962;2023-05-07T10:20:34;26.90;58.70
1063;DHT22;520;50.932;6.962;2023-05-07T10:23:25;26.40;60.80
1063;DHT22;520;50.932;6.962;2023-05-07T10:26:25;26.40;60.70
1063;DHT22;520;50.932;6.962;2023-05-07T10:32:47;26.10;62.90
1063;DHT22;520;50.932;6.962;2023-05-07T10:38:27;27.10;60.90
1063;DHT22;520;50.932;6.962;2023-05-07T10:41:05;27.40;58.90
1063;DHT22;520;50.932;6.962;2023-05-07T10:43:44;27.10;59.10
1063;DHT22;520;50.932;6.962;2023-05-07T10:47:03;27.20;58.80
1063;DHT22;520;50.932;6.962;2023-05-07T10:53:22;27.50;58.30
1063;DHT22;520;50.932;6.962;2023-05-07T10:59:36;27.50;58.10
1063;DHT22;520;50.932;6.962;2023-05-07T11:05:41;28.40;56.70
1063;DHT22;520;50.932;6.962;2023-05-07T11:08:25;27.90;57.60
1063;DHT22;520;50.932;6.962;2023-05-07T11:11:04;27.70;57.90
1063;DHT22;520;50.932;6.962;2023-05-07T11:13:56;27.80;58.30
1063;DHT22;520;50.932;6.962;2023-05-07T11:16:41;27.30;59.00
1063;DHT22;520;50.932;6.962;2023-05-07T11:19:55;27.30;58.30
1063;DHT22;520;50.932;6.962;2023-05-07T11:22:44;28.00;55.70
1063;DHT22;520;50.932;6.962;2023-05-07T11:25:19;28.00;54.10
1063;DHT22;520;50.932;6.962;2023-05-07T11:28:10;28.10;54.60
1063;DHT22;520;50.932;6.962;2023-05-07T11:31:10;27.90;54.30
1063;DHT22;520;50.932;6.962;2023-05-07T11:33:53;28.20;53.50
1063;DHT22;520;50.932;6.962;2023-05-07T11:36:49;27.80;53.60
1063;DHT22;520;50.932;6.962;2023-05-07T11:39:48;27.20;53.90
1063;DHT22;520;50.932;6.962;2023-05-07T11:42:41;26.80;53.00
1063;DHT22;520;50.932;6.962;2023-05-07T11:45:25;26.70;53.30
1063;DHT22;520;50.932;6.962;2023-05-07T11:47:56;26.60;55.10
1063;DHT22;520;50.932;6.962;2023-05-07T11:53:24;25.90;56.20
1063;DHT22;520;50.932;6.962;2023-05-07T11:56:02;25.80;55.80
1063;DHT22;520;50.932;6.962;2023-05-07T11:58:47;25.60;55.70
1063;DHT22;520;50.932;6.962;2023-05-07T12:01:36;25.40;56.70
1063;DHT22;520;50.932;6.962;2023-05-07T12:04:07;25.20;56.60
1063;DHT22;520;50.932;6.962;2023-05-07T12:06:58;24.90;57.70
1063;DHT22;520;50.932;6.962;2023-05-07T12:09:32;24.50;58.50
1063;DHT22;520;50.932;6.962;2023-05-07T12:12:09;24.50;59.00
1063;DHT22;520;50.932;6.962;2023-05-07T12:14:54;24.50;59.30
1063;DHT22;520;50.932;6.962;2023-05-07T12:17:32;24.60;59.70
1063;DHT22;520;50.932;6.962;2023-05-07T12:20:23;24.90;59.50
1063;DHT22;520;50.932;6.962;2023-05-07T12:23:08;25.00;59.20
1063;DHT22;520;50.932;6.962;2023-05-07T12:25:47;24.90;59.30
1063;DHT22;520;50.932;6.962;2023-05-07T12:28:36;24.90;60.20
1063;DHT22;520;50.932;6.962;2023-05-07T12:31:11;25.30;60.10
1063;DHT22;520;50.932;6.962;2023-05-07T12:33:49;25.20;59.50
1063;DHT22;520;50.932;6.962;2023-05-07T12:36:17;25.00;60.80
1063;DHT22;520;50.932;6.962;2023-05-07T12:38:56;24.80;61.10
1063;DHT22;520;50.932;6.962;2023-05-07T12:41:26;25.20;60.20
1063;DHT22;520;50.932;6.962;2023-05-07T12:43:56;25.10;60.00
1063;DHT22;520;50.932;6.962;2023-05-07T12:46:45;24.60;61.80
1063;DHT22;520;50.932;6.962;2023-05-07T12:49:15;24.60;62.30
1063;DHT22;520;50.932;6.962;2023-05-07T12:52:14;24.60;62.70
1063;DHT22;520;50.932;6.962;2023-05-07T12:55:12;24.80;63.00
1063;DHT22;520;50.932;6.962;2023-05-07T12:58:03;24.70;64.50
1063;DHT22;520;50.932;6.962;2023-05-07T13:00:55;24.70;65.20
1063;DHT22;520;50.932;6.962;2023-05-07T13:03:48;24.40;65.90
1063;DHT22;520;50.932;6.962;2023-05-07T13:06:25;24.30;66.30
1063;DHT22;520;50.932;6.962;2023-05-07T13:08:55;24.40;68.50
1063;DHT22;520;50.932;6.962;2023-05-07T13:11:32;24.30;68.80
1063;DHT22;520;50.932;6.962;2023-05-07T13:14:14;24.20;68.70
1063;DHT22;520;50.932;6.962;2023-05-07T13:17:06;24.20;68.00
1063;DHT22;520;50.932;6.962;2023-05-07T13:19:48;24.20;68.40
1063;DHT22;520;50.932;6.962;2023-05-07T13:22:23;24.20;69.60
1063;DHT22;520;50.932;6.962;2023-05-07T13:24:59;24.30;71.00
1063;DHT22;520;50.932;6.962;2023-05-07T13:27:32;24.20;71.00
1063;DHT22;520;50.932;6.962;2023-05-07T13:30:05;24.10;71.20
1063;DHT22;520;50.932;6.962;2023-05-07T13:32:36;24.00;71.00
1063;DHT22;520;50.932;6.962;2023-05-07T13:35:34;23.90;70.60
1063;DHT22;520;50.932;6.962;2023-05-07T13:38:24;23.90;70.50
1063;DHT22;520;50.932;6.962;2023-05-07T13:41:01;23.90;70.30
1063;DHT22;520;50.932;6.962;2023-05-07T13:43:37;23.80;70.10
1063;DHT22;520;50.932;6.962;2023-05-07T13:46:27;23.80;70.60
1063;DHT22;520;50.932;6.962;2023-05-07T13:49:30;23.90;72.30
1063;DHT22;520;50.932;6.962;2023-05-07T13:52:19;23.90;71.50
1063;DHT22;520;50.932;6.962;2023-05-07T13:55:19;23.90;69.50
1063;DHT22;520;50.932;6.962;2023-05-07T13:58:40;23.80;67.30
1063;DHT22;520;50.932;6.962;2023-05-07T14:01:38;23.70;68.30
1063;DHT22;520;50.932;6.962;2023-05-07T14:04:38;23.70;68.70
1063;DHT22;520;50.932;6.962;2023-05-07T14:07:33;23.80;68.70
1063;DHT22;520;50.932;6.962;2023-05-07T14:10:08;23.90;68.50
1063;DHT22;520;50.932;6.962;2023-05-07T14:12:47;23.90;70.20
1063;DHT22;520;50.932;6.962;2023-05-07T14:15:17;23.80;72.50
1063;DHT22;520;50.932;6.962;2023-05-07T14:17:51;23.70;73.60
1063;DHT22;520;50.932;6.962;2023-05-07T14:20:25;23.70;74.30
1063;DHT22;520;50.932;6.962;2023-05-07T14:23:04;23.60;73.20
1063;DHT22;520;50.932;6.962;2023-05-07T14:25:44;23.60;74.60
1063;DHT22;520;50.932;6.962;2023-05-07T14:28:25;23.50;75.50
1063;DHT22;520;50.932;6.962;2023-05-07T14:30:55;23.40;75.10
1063;DHT22;520;50.932;6.962;2023-05-07T14:33:33;23.40;75.70
1063;DHT22;520;50.932;6.962;2023-05-07T14:36:23;23.40;76.70
1063;DHT22;520;50.932;6.962;2023-05-07T14:38:57;23.40;77.70
1063;DHT22;520;50.932;6.962;2023-05-07T14:41:29;23.40;78.30
1063;DHT22;520;50.932;6.962;2023-05-07T14:44:01;23.40;78.50
1063;DHT22;520;50.932;6.962;2023-05-07T14:46:35;23.20;78.70
1063;DHT22;520;50.932;6.962;2023-05-07T14:49:11;23.30;78.60
1063;DHT22;520;50.932;6.962;2023-05-07T14:54:18;23.70;77.70
1063;DHT22;520;50.932;6.962;2023-05-07T14:56:48;24.00;77.60
1063;DHT22;520;50.932;6.962;2023-05-07T14:59:21;24.10;75.90
1063;DHT22;520;50.932;6.962;2023-05-07T15:01:51;24.10;76.30
1063;DHT22;520;50.932;6.962;2023-05-07T15:04:28;24.00;77.00
1063;DHT22;520;50.932;6.962;2023-05-07T15:10:03;23.50;81.10
1063;DHT22;520;50.932;6.962;2023-05-07T15:12:35;23.30;83.00
1063;DHT22;520;50.932;6.962;2023-05-07T15:15:22;23.40;83.70
1063;DHT22;520;50.932;6.962;2023-05-07T15:18:05;23.30;83.70
1063;DHT22;520;50.932;6.962;2023-05-07T15:20:41;23.40;84.10
1063;DHT22;520;50.932;6.962;2023-05-07T15:23:32;23.30;84.10
1063;DHT22;520;50.932;6.962;2023-05-07T15:26:08;23.40;83.00
1063;DHT22;520;50.932;6.962;2023-05-07T15:28:40;23.40;81.00
1063;DHT22;520;50.932;6.962;2023-05-07T15:31:09;23.20;83.50
1063;DHT22;520;50.932;6.962;2023-05-07T15:33:38;23.00;83.70
1063;DHT22;520;50.932;6.962;2023-05-07T15:36:11;23.00;83.50
1063;DHT22;520;50.932;6.962;2023-05-07T15:38:41;23.40;80.40
1063;DHT22;520;50.932;6.962;2023-05-07T15:41:16;23.60;79.70
1063;DHT22;520;50.932;6.962;2023-05-07T15:43:58;23.50;81.00
1063;DHT22;520;50.932;6.962;2023-05-07T15:46:54;23.40;82.30
1063;DHT22;520;50.932;6.962;2023-05-07T15:49:24;23.30;83.50
1063;DHT22;520;50.932;6.962;2023-05-07T15:52:05;23.20;84.30
1063;DHT22;520;50.932;6.962;2023-05-07T15:54:37;23.20;85.10
1063;DHT22;520;50.932;6.962;2023-05-07T15:57:12;23.00;85.70
1063;DHT22;520;50.932;6.962;2023-05-07T15:59:44;23.00;86.40
1063;DHT22;520;50.932;6.962;2023-05-07T16:05:19;22.70;87.20
1063;DHT22;520;50.932;6.962;2023-05-07T16:07:57;22.80;87.70
1063;DHT22;520;50.932;6.962;2023-05-07T16:10:34;23.10;86.30
1063;DHT22;520;50.932;6.962;2023-05-07T16:13:15;23.10;85.80
1063;DHT22;520;50.932;6.962;2023-05-07T16:15:56;23.30;86.00
1063;DHT22;520;50.932;6.962;2023-05-07T16:18:49;23.20;85.10
1063;DHT22;520;50.932;6.962;2023-05-07T16:21:28;23.20;86.00
1063;DHT22;520;50.932;6.962;2023-05-07T16:24:08;23.10;86.20
1063;DHT22;520;50.932;6.962;2023-05-07T16:26:52;22.90;85.80
1063;DHT22;520;50.932;6.962;2023-05-07T16:29:35;22.70;87.30
1063;DHT22;520;50.932;6.962;2023-05-07T16:32:11;22.90;86.60
1063;DHT22;520;50.932;6.962;2023-05-07T16:35:10;22.80;86.30
1063;DHT22;520;50.932;6.962;2023-05-07T16:37:53;22.50;87.00
1063;DHT22;520;50.932;6.962;2023-05-07T16:40:39;22.30;87.40
1063;DHT22;520;50.932;6.962;2023-05-07T16:43:21;21.90;88.30
1063;DHT22;520;50.932;6.962;2023-05-07T16:46:07;21.70;89.60
1063;DHT22;520;50.932;6.962;2023-05-07T16:48:35;21.70;90.00
1063;DHT22;520;50.932;6.962;2023-05-07T16:51:10;21.60;90.40
1063;DHT22;520;50.932;6.962;2023-05-07T16:54:26;21.60;90.80
1063;DHT22;520;50.932;6.962;2023-05-07T16:56:53;21.80;90.40
1063;DHT22;520;50.932;6.962;2023-05-07T16:59:33;21.70;90.30
1063;DHT22;520;50.932;6.962;2023-05-07T17:02:27;21.80;90.50
1063;DHT22;520;50.932;6.962;2023-05-07T17:04:58;21.80;90.60
1063;DHT22;520;50.932;6.962;2023-05-07T17:07:36;21.80;90.80
1063;DHT22;520;50.932;6.962;2023-05-07T17:10:12;21.80;90.80
1063;DHT22;520;50.932;6.962;2023-05-07T17:12:43;21.70;91.00
1063;DHT22;520;50.932;6.962;2023-05-07T17:15:12;21.60;90.90
1063;DHT22;520;50.932;6.962;2023-05-07T17:18:02;21.70;91.10
1063;DHT22;520;50.932;6.962;2023-05-07T17:20:51;21.70;91.00
1063;DHT22;520;50.932;6.962;2023-05-07T17:23:21;21.60;91.00
1063;DHT22;520;50.932;6.962;2023-05-07T17:26:16;21.40;91.60
1063;DHT22;520;50.932;6.962;2023-05-07T17:28:48;21.60;91.50
1063;DHT22;520;50.932;6.962;2023-05-07T17:31:15;21.90;91.30
1063;DHT22;520;50.932;6.962;2023-05-07T17:33:56;21.80;91.00
1063;DHT22;520;50.932;6.962;2023-05-07T17:36:38;21.70;91.60
1063;DHT22;520;50.932;6.962;2023-05-07T17:39:15;21.70;91.60
1063;DHT22;520;50.932;6.962;2023-05-07T17:41:50;21.50;91.80
1063;DHT22;520;50.932;6.962;2023-05-07T17:44:34;21.50;91.80
1063;DHT22;520;50.932;6.962;2023-05-07T17:47:16;21.30;92.20
1063;DHT22;520;50.932;6.962;2023-05-07T17:50:22;21.30;92.60
1063;DHT22;520;50.932;6.962;2023-05-07T17:53:10;21.50;92.70
1063;DHT22;520;50.932;6.962;2023-05-07T17:55:55;21.40;92.90
1063;DHT22;520;50.932;6.962;2023-05-07T17:58:34;21.50;93.30
1063;DHT22;520;50.932;6.962;2023-05-07T18:01:28;21.50;93.50
1063;DHT22;520;50.932;6.962;2023-05-07T18:04:00;21.40;94.40
1063;DHT22;520;50.932;6.962;2023-05-07T18:06:30;21.40;95.30
1063;DHT22;520;50.932;6.962;2023-05-07T18:12:01;21.30;96.40
1063;DHT22;520;50.932;6.962;2023-05-07T18:14:34;21.10;97.00
1063;DHT22;520;50.932;6.962;2023-05-07T18:17:13;21.20;97.40